Flight Track Log - Related Links

Times and Time Zones

All times are in EST time to prevent confusion due to time zone crossing. See the GJS6221 flight status page for this flight to view local times or setup timezone preferences in your user account.

Time Position Orientation Groundspeed Altitude Reporting Facility
EST Latitude Longitude Course Direction KTS km/h meters Rate Location/Type
Thu 16:27:11 40.7500 -73.8333 214° Southwest 186 344 823  Level New York TRACON
Thu 16:29:31 40.6164 -73.8906 198° South 239 443 2,499 713 Climbing New York Center
Thu 16:30:31 40.5672 -73.9319 213° Southwest 244 452 3,200 457 Climbing New York Center
Thu 16:31:31 40.4953 -73.9750 204° Southwest 254 470 3,414 229 Climbing New York Center
Thu 16:32:00 40.4449 -74.1956 214° Southwest  Level Estimated
Thu 16:32:31 40.4211 -74.0178 204° Southwest 296 549 3,658  Level New York Center
Thu 16:34:18 40.2667 -74.1044 203° Southwest 327 605 4,572 490 Climbing Washington Center
Thu 16:35:19 40.1778 -74.1553 204° Southwest 341 631 5,029 450 Climbing Washington Center
Thu 16:36:20 40.0953 -74.2247 213° Southwest 352 652 5,486 476 Climbing Washington Center
Thu 16:37:18 40.0211 -74.3075 221° Southwest 352 652 5,974 589 Climbing Washington Center
Thu 16:38:18 39.9492 -74.3900 221° Southwest 357 661 6,645 620 Climbing Washington Center
Thu 16:39:19 39.8811 -74.4642 220° Southwest 346 641 7,224 442 Climbing Washington Center
Thu 16:40:18 39.8172 -74.5381 222° Southwest 329 610 7,529 307 Climbing Washington Center
Thu 16:41:18 39.7492 -74.6172 222° Southwest 329 610 7,833 305 Climbing Washington Center
Thu 16:42:18 39.6831 -74.6908 221° Southwest 329 610 8,138 300 Climbing Washington Center
Thu 16:43:20 39.6147 -74.7644 220° Southwest 329 610 8,443 305 Climbing Washington Center
Thu 16:44:18 39.5486 -74.8406 222° Southwest 329 610 8,748 292 Climbing Washington Center
Thu 16:45:19 39.4825 -74.9139 221° Southwest 329 610 9,022 242 Climbing Washington Center
Thu 16:46:19 39.4161 -74.9872 220° Southwest 329 610 9,235 212 Climbing Washington Center
Thu 16:47:20 39.3456 -75.0628 220° Southwest 329 610 9,449 184 Climbing Washington Center
Thu 16:48:18 39.2708 -75.1225 212° Southwest 329 610 9,601 155 Climbing Washington Center
Thu 16:49:18 39.1814 -75.1658 201° Southwest 334 618 9,754 151 Climbing Washington Center
Thu 16:50:19 39.0856 -75.1986 195° South 349 647 9,906 150 Climbing Washington Center
Thu 16:51:20 38.9961 -75.2417 201° Southwest 354 655 10,058 152 Climbing Washington Center
Thu 16:52:19 38.9044 -75.2822 199° South 354 655 10,211 168 Climbing Washington Center
Thu 16:53:20 38.8108 -75.3225 199° South 354 655 10,394 230 Climbing Washington Center
Thu 16:54:18 38.7192 -75.3547 195° South 349 647 10,668 217 Climbing Washington Center
Thu 16:55:18 38.6294 -75.3950 199° South 344 637 10,820 152 Climbing Washington Center
Thu 16:56:18 38.5378 -75.4350 199° South 344 637 10,973 151 Climbing Washington Center
Thu 16:57:19 38.4461 -75.4725 198° South 344 637 11,125 150 Climbing Washington Center
Thu 16:58:20 38.3567 -75.5122 199° South 344 637 11,278 155 Climbing Washington Center
Thu 16:59:17 38.2711 -75.5786 211° Southwest 338 626 11,430 155 Climbing Washington Center
Thu 17:00:18 38.1981 -75.6472 216° Southwest 333 616 11,582 75 Climbing Washington Center
Thu 17:01:19 38.1272 -75.7158 217° Southwest 328 607 11,582  Level Washington Center
Thu 17:02:20 38.0542 -75.7842 216° Southwest 333 616 11,582  Level Washington Center
Thu 17:03:18 37.9769 -75.8553 216° Southwest 333 616 11,582  Level Washington Center
Thu 17:04:19 37.9036 -75.9233 216° Southwest 338 626 11,582  Level Washington Center
Thu 17:05:19 37.8264 -75.9967 217° Southwest 338 626 11,582  Level Washington Center
Thu 17:06:18 37.7636 -76.0594 218° Southwest 338 626 11,582  Level Washington Center
Thu 17:07:19 37.6881 -76.1297 216° Southwest 338 626 11,582  Level Washington Center
Thu 17:08:20 37.6064 -76.2000 214° Southwest 333 616 11,582  Level Washington Center
Thu 17:09:18 37.5311 -76.2675 215° Southwest 333 616 11,582  Level Washington Center
Thu 17:10:19 37.4575 -76.3375 217° Southwest 333 616 11,582  Level Washington Center
Thu 17:11:19 37.3819 -76.4047 215° Southwest 338 626 11,582  Level Washington Center
Thu 17:12:19 37.3106 -76.4744 218° Southwest 338 626 11,582  Level Washington Center
Thu 17:13:20 37.2392 -76.5442 218° Southwest 338 626 11,582  Level Washington Center
Thu 17:14:18 37.1678 -76.6161 219° Southwest 338 626 11,582  Level Washington Center
Thu 17:15:18 37.0961 -76.6856 218° Southwest 338 626 11,582  Level Washington Center
Thu 17:16:19 37.0225 -76.7572 218° Southwest 338 626 11,582  Level Washington Center
Thu 17:17:19 36.9508 -76.8264 218° Southwest 338 626 11,582  Level Washington Center
Thu 17:18:20 36.8792 -76.8981 219° Southwest 338 626 11,582  Level Washington Center
Thu 17:19:18 36.8075 -76.9694 219° Southwest 338 626 11,582  Level Washington Center
Thu 17:20:18 36.7356 -77.0408 219° Southwest 338 626 11,582  Level Washington Center
Thu 17:21:20 36.6617 -77.1092 217° Southwest 338 626 11,582  Level Washington Center
Thu 17:22:21 36.5900 -77.1803 219° Southwest 338 626 11,582  Level Washington Center
Thu 17:23:19 36.5181 -77.2511 218° Southwest 338 626 11,582  Level Washington Center
Thu 17:24:20 36.4442 -77.3194 217° Southwest 338 626 11,582  Level Washington Center
Thu 17:25:19 36.3742 -77.3900 219° Southwest 332 615 11,582  Level Washington Center
Thu 17:26:20 36.3022 -77.4581 217° Southwest 332 615 11,582  Level Washington Center
Thu 17:27:18 36.2408 -77.5183 218° Southwest 332 615 11,582  Level Washington Center
Thu 17:28:19 36.1686 -77.5861 217° Southwest 332 615 11,582  Level Washington Center
Thu 17:29:21 36.0944 -77.6561 217° Southwest 332 615 11,582  Level Washington Center
Thu 17:30:18 36.0244 -77.7261 219° Southwest 332 615 11,582  Level Washington Center
Thu 17:31:19 35.9503 -77.7933 216° Southwest 332 615 11,582  Level Washington Center
Thu 17:32:20 35.8781 -77.8606 217° Southwest 332 615 11,582  Level Washington Center
Thu 17:33:18 35.8036 -77.9303 217° Southwest 332 615 11,582  Level Washington Center
Thu 17:34:19 35.7314 -77.9972 217° Southwest 332 615 11,582  Level Washington Center
Thu 17:35:20 35.6569 -78.0692 218° Southwest 332 615 11,582  Level Washington Center
Thu 17:36:18 35.5844 -78.1333 216° Southwest 332 615 11,582  Level Washington Center
Thu 17:37:20 35.5100 -78.2050 218° Southwest 332 615 11,582  Level Washington Center
Thu 17:38:20 35.4292 -78.2786 217° Southwest 337 624 11,582  Level Washington Center
Thu 17:39:18 35.3503 -78.3500 216° Southwest 337 624 11,582  Level Washington Center
Thu 17:40:19 35.2756 -78.4186 217° Southwest 342 634 11,582  Level Washington Center
Thu 17:41:19 35.2031 -78.4872 218° Southwest 342 634 11,582  Level Washington Center
Thu 17:42:18 35.1283 -78.5583 218° Southwest 342 634 11,582  Level Washington Center
Thu 17:43:20 35.0514 -78.6264 216° Southwest 342 634 11,582  Level Washington Center
Thu 17:44:18 34.9767 -78.6972 218° Southwest 347 642 11,582  Level Washington Center
Thu 17:47:36 34.7294 -78.9217 217° Southwest 354 655 11,582  Level Jacksonville Center
Thu 17:48:36 34.6544 -78.9908 217° Southwest 354 655 11,582  Level Jacksonville Center
Thu 17:49:37 34.5750 -79.0597 216° Southwest 354 655 11,582  Level Jacksonville Center
Thu 17:50:37 34.4922 -79.1442 220° Southwest 354 655 11,582  Level Jacksonville Center
Thu 17:51:37 34.4150 -79.2156 217° Southwest 354 655 11,582  Level Jacksonville Center
Thu 17:52:37 34.3356 -79.2867 216° Southwest 359 665 11,582  Level Jacksonville Center
Thu 17:53:37 34.2564 -79.3553 216° Southwest 359 665 11,582  Level Jacksonville Center
Thu 17:54:37 34.1931 -79.4081 215° Southwest 353 653 11,582  Level Jacksonville Center
Thu 17:55:36 34.1033 -79.4869 216° Southwest 346 641 11,582  Level Jacksonville Center
Thu 17:56:36 34.0239 -79.5600 217° Southwest 354 655 11,582  Level Jacksonville Center
Thu 17:57:37 33.9464 -79.6256 215° Southwest 354 655 11,582 -15 Level Jacksonville Center
Thu 17:58:36 33.8669 -79.6961 216° Southwest 354 655 11,552 -183 Descending Jacksonville Center
Thu 17:59:37 33.7914 -79.7664 218° Southwest 354 655 11,217 -468 Descending Jacksonville Center
Thu 18:00:37 33.7178 -79.8314 216° Southwest 349 647 10,607 -610 Descending Jacksonville Center
Thu 18:01:37 33.6381 -79.9014 216° Southwest 349 647 9,997 -615 Descending Jacksonville Center
Thu 18:02:36 33.5586 -79.9739 217° Southwest 356 660 9,388 -610 Descending Jacksonville Center
Thu 18:03:37 33.4786 -80.0439 216° Southwest 362 671 8,778 -604 Descending Jacksonville Center
Thu 18:04:37 33.3989 -80.1111 215° Southwest 362 671 8,169 -610 Descending Jacksonville Center
Thu 18:05:37 33.3211 -80.1806 217° Southwest 351 650 7,559 -594 Descending Jacksonville Center
Thu 18:06:37 33.2453 -80.2475 216° Southwest 351 650 6,980 -610 Descending Jacksonville Center
Thu 18:07:37 33.1672 -80.3119 215° Southwest 351 650 6,340 -594 Descending Jacksonville Center
Thu 18:08:37 33.0956 -80.3783 218° Southwest 351 650 5,791 -533 Descending Jacksonville Center
Thu 18:09:37 33.0236 -80.4375 215° Southwest 356 660 5,273 -472 Descending Jacksonville Center
Thu 18:10:37 32.9478 -80.5014 215° Southwest 351 650 4,846 -442 Descending Jacksonville Center
Thu 18:11:37 32.8736 -80.5653 216° Southwest 351 650 4,389 -457 Descending Jacksonville Center
Thu 18:12:37 32.8017 -80.6286 217° Southwest 346 641 3,932 -457 Descending Jacksonville Center
Thu 18:13:37 32.7278 -80.6922 216° Southwest 335 621 3,475 -411 Descending Jacksonville Center
Thu 18:14:37 32.6681 -80.7431 216° Southwest 310 575 3,109 -442 Descending Jacksonville Center
Thu 18:15:37 32.6147 -80.7914 217° Southwest 256 475 2,591 -335 Descending Jacksonville Center
Thu 18:16:37 32.5506 -80.8322 208° Southwest 236 438 2,438 -77 Descending Jacksonville Center
Thu 18:17:36 32.4947 -80.8631 205° Southwest 241 446 2,438  Level Jacksonville Center
Thu 18:18:37 32.4286 -80.9014 206° Southwest 246 455 2,438 -15 Level Jacksonville Center
Thu 18:19:37 32.3644 -80.9372 205° Southwest 253 468 2,408 -30 Descending Jacksonville Center
Thu 18:21:00 32.2790 -81.0543 220° Southwest  Level FlightAware Approximate
Thu 18:28:00 32.1276 -81.2021 270° West  Level Estimated
Thu 18:29:00 32.1276 -81.2021 270° West  Level Estimated
Thu 18:30:00 32.1276 -81.2021 270° West  Level Estimated
Thu 18:31:00 32.1276 -81.2021 270° West  Level Estimated
Thu 18:32:00 32.1276 -81.2021 270° West  Level Estimated
Thu 18:33:00 32.1276 -81.2021 270° West  Level Estimated
Thu 18:34:00 32.1276 -81.2021 270° West  Level Estimated
Thu 18:35:00 32.1276 -81.2021 270° West  Level Estimated
Thu 18:36:00 32.1276 -81.2021 270° West  Level Estimated
Thu 18:37:00 32.1276 -81.2021 270° West  Level Estimated
Thu 18:38:00 32.1276 -81.2021 270° West  Level Estimated
Thu 18:39:00 32.1276 -81.2021 270° West  Level Estimated
Thu 18:40:00 32.1276 -81.2021 270° West  Level Estimated
Thu 18:41:00 32.1276 -81.2021 270° West  Level Estimated

Login

Don't have an account? Register now (free) for customized features, flight alerts, and more!